• Join FlightAware (Why Join?)
  • Login
  • US Flag 
06:54PM EDT


 

Airport Tracker/Info


-or-


 

Live Flight TrackerFlight Track Log ✈ N67511 ✈ 22-Apr-2013 ✈ KPWK - KYIP

Flight Track Log - Related Links

Times and Time Zones

All times are in EDT time to prevent confusion due to time zone crossing. See the N67511 flight status page for this flight to view local times or setup timezone preferences in your user account.

Time Position Orientation Groundspeed Altitude Reporting Facility
EDT Latitude Longitude Course Direction KTS MPH feet Rate Location/Type
03:26PM 42.1333 -87.9167 10° North 146 168 2,500  Level Chicago TRACON
03:27PM 42.1667 -87.8833 37° Northeast 157 181 3,700 1,020 Climbing Chicago TRACON
03:28PM 42.2011 -87.8417 42° Northeast 156 180 4,800 1,020 Climbing Chicago Center
03:29PM 42.2539 -87.8328 North 188 216 5,900 1,320 Climbing Chicago Center
03:30PM 42.3186 -87.8381 357° North 196 226 7,600 1,440 Climbing Chicago Center
03:31PM 42.2710 -87.8281 10° North  Level FlightAware Approximate
03:31PM 42.3642 -87.8425 356° North 187 215 8,900  Level Chicago Center
03:32PM 42.3063 -87.8193 10° North  Level FlightAware Approximate
03:32PM 42.4256 -87.8364 North 188 216 10,700  Level Chicago Center
03:33PM 42.4767 -87.8364 360° North 184 212 12,200 1,260 Climbing Chicago Center
03:34PM 42.5275 -87.8411 356° North 182 209 13,400 960 Climbing Chicago Center
03:35PM 42.5839 -87.8264 11° North 202 232 14,200 780 Climbing Chicago Center
03:36PM 42.6422 -87.8100 12° North 213 245 15,000 720 Climbing Chicago Center
03:38PM 42.7014 -87.7989 North 214 246 15,700 720 Climbing Chicago Center
03:39PM 42.7586 -87.7503 32° Northeast 223 257 16,600 780 Climbing Chicago Center
03:40PM 42.8003 -87.6889 47° Northeast 218 251 17,400 600 Climbing Chicago Center
03:41PM 42.8300 -87.6153 61° Northeast 222 255 17,900 540 Climbing Chicago Center
03:42PM 42.8556 -87.5408 65° Northeast 219 252 18,600 480 Climbing Chicago Center
03:43PM 42.8761 -87.4597 71° East 225 259 19,000 180 Climbing Chicago Center
03:44PM 42.8914 -87.3750 76° East 235 270 19,000  Level Chicago Center
03:45PM 42.9008 -87.2825 82° East 246 283 19,000  Level Chicago Center
03:46PM 42.9083 -87.1728 85° East 244 281 19,000  Level Chicago Center
03:47PM 42.8956 -87.0844 101° East 239 275 19,000  Level Chicago Center
03:48PM 42.8886 -86.9928 96° East 243 280 19,000  Level Chicago Center
03:49PM 42.8833 -86.9006 94° East 246 283 19,000  Level Chicago Center
03:50PM 42.8772 -86.8081 95° East 246 283 19,000  Level Chicago Center
03:51PM 42.8722 -86.7186 94° East 241 277 19,000  Level Chicago Center
03:52PM 42.8664 -86.6264 95° East 243 280 19,000  Level Chicago Center
03:53PM 42.8583 -86.5181 96° East 243 280 19,000  Level Chicago Center
03:54PM 42.8531 -86.4275 95° East 241 277 19,000  Level Chicago Center
03:55PM 42.8464 -86.3386 96° East 238 274 19,000  Level Chicago Center
03:56PM 42.8397 -86.2497 96° East 239 275 19,000  Level Chicago Center
03:57PM 42.8333 -86.1614 96° East 237 273 19,000  Level Chicago Center
03:58PM 42.8269 -86.0544 95° East 238 274 19,000  Level Chicago Center
03:59PM 42.8189 -85.9656 97° East 239 275 19,000  Level Chicago Center
04:00PM 42.8131 -85.8769 95° East 238 274 19,000  Level Chicago Center
04:01PM 42.8069 -85.7883 95° East 237 273 19,000  Level Chicago Center
04:02PM 42.8006 -85.6997 96° East 237 273 19,000  Level Chicago Center
04:03PM 42.7933 -85.6089 96° East 241 277 19,000  Level Chicago Center
04:04PM 42.7853 -85.5033 96° East 237 273 19,000  Level Chicago Center
04:05PM 42.7778 -85.4147 97° East 236 272 19,000  Level Chicago Center
04:06PM 42.7708 -85.3253 96° East 237 273 19,000  Level Chicago Center
04:07PM 42.7633 -85.2369 97° East 237 273 19,000  Level Chicago Center
04:08PM 42.7553 -85.1500 97° East 234 269 19,000  Level Chicago Center
04:09PM 42.7483 -85.0608 96° East 236 272 19,000  Level Chicago Center
04:10PM 42.7397 -84.9550 96° East 235 270 19,000 -240 Level Chicago Center
04:12PM 42.7308 -84.8681 98° East 233 268 18,600 -540 Descending Chicago Center
04:13PM 42.7225 -84.7728 97° East 249 287 17,900 -900 Descending Chicago Center
04:14PM 42.7150 -84.6742 96° East 260 299 16,800 -1,080 Descending Chicago Center
04:15PM 42.7167 -84.5772 89° East 257 296 15,700 -1,200 Descending Chicago Center
04:15PM 42.7161 -84.5117 91° East 258 297 15,000 -1,320 Descending FAA TRACON SMA TRACON (SMA)
04:15PM 42.7153 -84.4819 92° East 257 296 14,600 -1,080 Descending FAA TRACON SMA TRACON (SMA)
04:16PM 42.7144 -84.4531 92° East 254 292 14,300 -1,200 Descending FAA TRACON SMA TRACON (SMA)
04:16PM 42.7142 -84.4169 91° East 250 288 13,800 -1,200 Descending FAA TRACON SMA TRACON (SMA)
04:16PM 42.7139 -84.3889 91° East 248 285 13,500 -1,080 Descending FAA TRACON SMA TRACON (SMA)
04:17PM 42.7131 -84.3614 92° East 242 278 13,100 -900 Descending FAA TRACON SMA TRACON (SMA)
04:17PM 42.7122 -84.3331 92° East 237 273 12,900 -1,080 Descending FAA TRACON SMA TRACON (SMA)
04:17PM 42.7122 -84.2986 90° East 241 277 12,400 -1,440 Descending FAA TRACON SMA TRACON (SMA)
04:18PM 42.7117 -84.2706 92° East 241 277 12,000 -1,260 Descending FAA TRACON SMA TRACON (SMA)
04:18PM 42.7114 -84.2422 91° East 241 277 11,600 -1,380 Descending FAA TRACON SMA TRACON (SMA)
04:18PM 42.7108 -84.2072 91° East 239 275 11,100 -1,380 Descending FAA TRACON SMA TRACON (SMA)
04:19PM 42.7103 -84.1803 92° East 240 276 10,700 -1,200 Descending FAA TRACON SMA TRACON (SMA)
04:19PM 42.7103 -84.1522 90° East 238 274 10,300 -1,380 Descending FAA TRACON SMA TRACON (SMA)
04:19PM 42.7097 -84.1189 91° East 234 269 9,800 -1,080 Descending FAA TRACON SMA TRACON (SMA)
04:20PM 42.7092 -84.0931 92° East 229 264 9,600 -600 Descending FAA TRACON SMA TRACON (SMA)
04:20PM 42.7083 -84.0628 92° East 212 244 9,400 -600 Descending FAA TRACON SMA TRACON (SMA)
04:20PM 42.7081 -84.0394 91° East 208 239 9,200 -300 Descending FAA TRACON SMA TRACON (SMA)
04:21PM 42.7078 -84.0231 91° East 202 232 9,200 -420 Level FAA TRACON SMA TRACON (SMA)
04:21PM 42.6828 -83.9764 126° Southeast 207 238 8,800 -600 Descending FAA TRACON SMA TRACON (SMA)
04:22PM 42.6706 -83.9586 133° Southeast 209 241 8,600 -780 Descending FAA TRACON SMA TRACON (SMA)
04:22PM 42.6550 -83.9367 134° Southeast 211 243 8,300 -780 Descending FAA TRACON SMA TRACON (SMA)
04:22PM 42.6417 -83.9192 136° Southeast 213 245 8,100 -600 Descending FAA TRACON SMA TRACON (SMA)
04:23PM 42.6286 -83.9011 134° Southeast 215 247 7,900 -900 Descending FAA TRACON SMA TRACON (SMA)
04:23PM 42.6122 -83.8783 134° Southeast 218 251 7,500 -900 Descending FAA TRACON SMA TRACON (SMA)
04:23PM 42.5994 -83.8600 133° Southeast 216 249 7,300 -780 Descending FAA TRACON SMA TRACON (SMA)
04:24PM 42.5872 -83.8419 133° Southeast 214 246 7,000 -1,080 Descending FAA TRACON SMA TRACON (SMA)
04:24PM 42.5722 -83.8194 132° Southeast 212 244 6,600 -1,260 Descending FAA TRACON SMA TRACON (SMA)
04:24PM 42.5583 -83.8050 143° Southeast 208 239 6,200 -1,140 Descending FAA TRACON SMA TRACON (SMA)
04:25PM 42.5236 -83.7797 152° Southeast 206 237 5,500 -1,140 Descending FAA TRACON SMA TRACON (SMA)
04:25PM 42.5083 -83.7681 151° Southeast 203 234 5,100 -1,200 Descending FAA TRACON SMA TRACON (SMA)
04:26PM 42.4933 -83.7567 151° Southeast 200 230 4,700 -1,380 Descending FAA TRACON SMA TRACON (SMA)
04:26PM 42.4753 -83.7439 152° Southeast 196 226 4,200 -1,440 Descending FAA TRACON SMA TRACON (SMA)
04:26PM 42.4600 -83.7364 160° South 187 215 3,800 -900 Descending FAA TRACON SMA TRACON (SMA)
04:27PM 42.4456 -83.7292 160° South 181 208 3,600 -660 Descending FAA TRACON SMA TRACON (SMA)
04:27PM 42.4297 -83.7228 163° South 176 203 3,400 -420 Descending Cleveland Center
04:28PM 42.3886 -83.7008 158° South 153 176 3,100 -180 Descending Cleveland Center
04:29PM 42.3519 -83.6739 151° Southeast 151 174 3,100  Level Cleveland Center
04:30PM 42.3175 -83.6386 143° Southeast 158 182 3,100 -120 Level Cleveland Center
04:30PM 42.3081 -83.6231 129° Southeast 146 168 3,000 -480 Descending FAA TRACON SMA TRACON (SMA)
04:31PM 42.2997 -83.6117 135° Southeast 141 162 2,800 -900 Descending FAA TRACON SMA TRACON (SMA)
04:31PM 42.2892 -83.5981 136° Southeast 136 157 2,400 -1,200 Descending FAA TRACON SMA TRACON (SMA)
04:31PM 42.2814 -83.5878 136° Southeast 130 150 2,000 -900 Descending FAA TRACON SMA TRACON (SMA)
04:32PM 42.2733 -83.5786 140° Southeast 122 140 1,800 -600 Descending FAA TRACON SMA TRACON (SMA)
04:32PM 42.2642 -83.5669 137° Southeast 119 137 1,600 -600 Descending FAA TRACON SMA TRACON (SMA)
04:32PM 42.2586 -83.5589 133° Southeast 87 100 1,400 -600 Descending FAA TRACON SMA TRACON (SMA)
04:33PM 42.2517 -83.5503 137° Southeast 104 120 1,200 -780 Descending FAA TRACON SMA TRACON (SMA)
04:33PM 42.2469 -83.5442 136° Southeast 103 119 900 -300 Descending FAA TRACON SMA TRACON (SMA)
04:34PM 42.2469 -83.5442 29° Northeast 103 119 900  Level FAA TRACON SMA TRACON (SMA)
04:36PM 42.2393 -83.5310 90° East  Level Estimated